Time;durP1;ratioP1;P1;durP2;ratioP2;P2;SDS_P1;SDS_P2;PMS_P1;PMS_P2;Temp;Humidity;BMP_temperature;BMP_pressure;BME280_temperature;BME280_humidity;BME280_pressure;Samples;Min_cycle;Max_cycle;Signal;HPM_P1;HPM_P2
2023/07/21 00:02:06;;;;;;;2.90;2.70;;;13.50;99.90;;;;;;5013760;28;20168;-74
2023/07/21 00:04:31;;;;;;;3.33;3.03;;;13.50;99.90;;;;;;5028698;28;20415;-71
2023/07/21 00:06:57;;;;;;;4.53;2.80;;;13.50;99.90;;;;;;5029421;28;20810;-69
2023/07/21 00:09:23;;;;;;;3.30;3.00;;;13.40;99.90;;;;;;5029271;28;20761;-69
2023/07/21 00:11:48;;;;;;;4.57;3.00;;;13.40;99.90;;;;;;5031573;28;20187;-69
2023/07/21 00:14:14;;;;;;;3.50;2.77;;;13.40;99.90;;;;;;5019122;28;20262;-69
2023/07/21 00:16:40;;;;;;;4.13;2.80;;;13.40;99.90;;;;;;5019495;28;20212;-78
2023/07/21 00:19:06;;;;;;;3.43;3.23;;;13.40;99.90;;;;;;5029025;28;20199;-78
2023/07/21 00:21:34;;;;;;;3.10;2.90;;;13.30;99.90;;;;;;5031441;28;20217;-69
2023/07/21 00:24:01;;;;;;;3.10;2.90;;;13.30;99.90;;;;;;5019144;28;20437;-76
2023/07/21 00:26:26;;;;;;;3.00;2.80;;;13.30;99.90;;;;;;5029683;28;20490;-79
2023/07/21 00:28:52;;;;;;;4.10;3.70;;;13.30;99.90;;;;;;5018146;28;20431;-70
2023/07/21 00:31:18;;;;;;;3.23;2.93;;;13.30;99.90;;;;;;5021116;28;20709;-78
2023/07/21 00:33:44;;;;;;;4.03;3.50;;;13.30;99.90;;;;;;5032033;28;20210;-76
2023/07/21 00:36:12;;;;;;;3.80;3.50;;;13.30;99.90;;;;;;5030250;28;20195;-78
2023/07/21 00:38:40;;;;;;;14.63;3.93;;;13.30;99.90;;;;;;5030586;28;20437;-72
2023/07/21 00:41:06;;;;;;;4.10;3.70;;;13.20;99.90;;;;;;5032379;28;20410;-70
2023/07/21 00:43:32;;;;;;;4.37;3.87;;;13.20;99.90;;;;;;5022660;28;20431;-76
2023/07/21 00:45:58;;;;;;;4.70;3.67;;;13.20;99.90;;;;;;5022207;28;20947;-76
2023/07/21 00:48:24;;;;;;;5.10;3.40;;;13.20;99.90;;;;;;5031056;28;20524;-76
2023/07/21 00:50:53;;;;;;;5.67;3.50;;;13.20;1.00;;;;;;5031686;28;20275;-71
2023/07/21 00:53:19;;;;;;;4.00;3.67;;;13.10;1.00;;;;;;5031333;28;20481;-69
2023/07/21 00:55:48;;;;;;;4.07;3.77;;;13.00;99.90;;;;;;5030724;28;20437;-69
2023/07/21 00:58:14;;;;;;;4.23;2.90;;;12.90;99.90;;;;;;5029559;28;20534;-71
2023/07/21 01:00:41;;;;;;;3.77;2.53;;;12.90;1.00;;;;;;5025336;28;20445;-70
2023/07/21 01:03:10;;;;;;;3.70;3.17;;;13.00;1.00;;;;;;5013105;28;20799;-77
2023/07/21 01:05:41;;;;;;;6.67;3.53;;;13.00;1.00;;;;;;5024712;28;20425;-69
2023/07/21 01:08:08;;;;;;;4.43;3.07;;;13.00;1.00;;;;;;5027750;28;20449;-70
2023/07/21 01:10:35;;;;;;;2.97;2.77;;;12.90;1.00;;;;;;5029811;28;20449;-77
2023/07/21 01:13:02;;;;;;;3.13;2.80;;;12.90;1.00;;;;;;5033794;28;20457;-79
2023/07/21 01:15:29;;;;;;;3.20;2.73;;;12.90;1.00;;;;;;5021325;28;20571;-72
2023/07/21 01:17:57;;;;;;;3.80;3.20;;;12.90;1.00;;;;;;5034294;28;20464;-69
2023/07/21 01:20:25;;;;;;;3.60;3.30;;;12.90;1.00;;;;;;5034986;28;20488;-69
2023/07/21 01:23:06;;;;;;;5.00;2.37;;;12.80;1.00;;;;;;5035124;28;20450;-77
2023/07/21 01:25:33;;;;;;;3.50;3.20;;;12.80;1.00;;;;;;5034745;28;20434;-72
2023/07/21 01:28:02;;;;;;;3.37;3.10;;;12.80;1.00;;;;;;5034230;28;20512;-77
2023/07/21 01:30:29;;;;;;;3.70;2.70;;;12.80;1.00;;;;;;5027778;28;20441;-71
2023/07/21 01:32:56;;;;;;;8.63;3.37;;;12.80;1.00;;;;;;5026912;28;20487;-78
2023/07/21 01:35:23;;;;;;;4.93;3.17;;;12.90;1.00;;;;;;5034052;28;20445;-77
2023/07/21 01:37:49;;;;;;;4.27;2.70;;;12.90;1.00;;;;;;5025035;28;20549;-69
2023/07/21 01:40:16;;;;;;;4.37;3.50;;;12.80;1.00;;;;;;5035781;28;20766;-70
2023/07/21 01:42:46;;;;;;;5.80;4.33;;;12.80;1.00;;;;;;5027739;28;20406;-70
2023/07/21 01:45:12;;;;;;;3.67;2.77;;;12.90;1.00;;;;;;5019976;28;20409;-72
2023/07/21 01:47:38;;;;;;;5.03;2.90;;;12.80;1.00;;;;;;5024771;28;20489;-78
2023/07/21 01:50:08;;;;;;;4.70;3.27;;;12.90;1.00;;;;;;5034314;28;20851;-69
2023/07/21 01:52:36;;;;;;;3.10;2.80;;;12.80;1.00;;;;;;5034704;28;20179;-78
2023/07/21 01:55:09;;;;;;;3.73;2.67;;;12.80;1.00;;;;;;5032904;28;20553;-75
2023/07/21 01:57:38;;;;;;;4.27;3.27;;;12.80;1.00;;;;;;5033851;28;20468;-68
2023/07/21 02:00:10;;;;;;;5.87;2.90;;;12.80;1.00;;;;;;5031680;28;20422;-75
2023/07/21 02:02:38;;;;;;;3.80;2.67;;;12.70;1.00;;;;;;5023948;28;20422;-70
2023/07/21 02:05:05;;;;;;;4.70;2.97;;;12.70;1.00;;;;;;5033607;28;20401;-70
2023/07/21 02:07:32;;;;;;;7.80;3.97;;;12.80;1.00;;;;;;5028604;28;20857;-72
2023/07/21 02:09:58;;;;;;;3.67;3.37;;;12.80;1.00;;;;;;5033011;28;21011;-72
2023/07/21 02:12:24;;;;;;;4.60;3.10;;;12.80;1.00;;;;;;5020595;28;20968;-72
2023/07/21 02:14:50;;;;;;;3.83;3.13;;;12.70;1.00;;;;;;5033110;28;20409;-76
2023/07/21 02:17:16;;;;;;;6.03;5.50;;;12.70;1.00;;;;;;5020349;28;20204;-70
2023/07/21 02:19:42;;;;;;;9.63;3.90;;;12.60;1.00;;;;;;5034184;28;20972;-70
2023/07/21 02:22:07;;;;;;;3.50;3.20;;;12.70;1.00;;;;;;5034641;28;20453;-74
2023/07/21 02:24:33;;;;;;;4.20;3.80;;;12.70;1.00;;;;;;5023360;28;20433;-73
2023/07/21 02:26:59;;;;;;;3.77;3.17;;;12.60;1.00;;;;;;5031996;28;20184;-71
2023/07/21 02:29:25;;;;;;;5.83;3.40;;;12.60;1.00;;;;;;5034015;28;20540;-70
2023/07/21 02:31:50;;;;;;;4.23;3.30;;;12.60;1.00;;;;;;5019438;28;20254;-78
2023/07/21 02:34:16;;;;;;;4.17;3.50;;;12.60;1.00;;;;;;5030391;28;20525;-72
2023/07/21 02:36:42;;;;;;;6.07;3.70;;;12.60;1.00;;;;;;5031956;28;20705;-68
2023/07/21 02:39:07;;;;;;;3.93;3.17;;;12.60;1.00;;;;;;5030043;28;20172;-69
2023/07/21 02:41:33;;;;;;;3.80;3.27;;;12.60;1.00;;;;;;5033780;28;20198;-76
2023/07/21 02:43:59;;;;;;;3.40;3.10;;;12.60;1.00;;;;;;5016757;28;20200;-73
2023/07/21 02:46:25;;;;;;;4.30;2.97;;;12.60;1.00;;;;;;5014870;28;20568;-76
2023/07/21 02:48:51;;;;;;;3.73;2.73;;;12.50;1.00;;;;;;5019887;28;20952;-69
2023/07/21 02:51:17;;;;;;;3.30;3.10;;;12.50;1.00;;;;;;5032796;28;20501;-70
2023/07/21 02:53:42;;;;;;;3.53;3.17;;;12.60;1.00;;;;;;5031796;28;20721;-68
2023/07/21 02:56:08;;;;;;;4.30;3.37;;;12.50;1.00;;;;;;5032356;28;20242;-69
2023/07/21 02:58:34;;;;;;;5.67;3.60;;;12.50;1.00;;;;;;5032987;28;20283;-69
2023/07/21 03:01:03;;;;;;;2.93;2.70;;;12.50;1.00;;;;;;5019046;28;20959;-71
2023/07/21 03:03:29;;;;;;;3.43;3.20;;;12.50;1.00;;;;;;5025802;28;20168;-75
2023/07/21 03:05:56;;;;;;;3.70;2.90;;;12.50;1.00;;;;;;5032611;28;20438;-78
2023/07/21 03:08:28;;;;;;;6.43;5.23;;;12.60;1.00;;;;;;5033219;28;20977;-78
2023/07/21 03:10:55;;;;;;;4.10;3.60;;;12.60;1.00;;;;;;5024574;28;20431;-76
2023/07/21 03:13:22;;;;;;;3.70;2.93;;;12.50;1.00;;;;;;5022046;28;20409;-76
2023/07/21 03:15:47;;;;;;;3.07;2.87;;;12.50;1.00;;;;;;5027481;28;20435;-70
2023/07/21 03:18:13;;;;;;;3.43;3.13;;;12.50;1.00;;;;;;5019034;28;20446;-78
2023/07/21 03:20:39;;;;;;;4.30;3.57;;;12.50;1.00;;;;;;5025925;28;20257;-68
2023/07/21 03:23:07;;;;;;;4.40;3.00;;;12.60;1.00;;;;;;5032607;28;20175;-78
2023/07/21 03:25:34;;;;;;;3.43;3.13;;;12.50;1.00;;;;;;5033358;28;20167;-72
2023/07/21 03:27:59;;;;;;;3.90;3.23;;;12.50;1.00;;;;;;5032791;28;20453;-77
2023/07/21 03:30:25;;;;;;;3.77;3.47;;;12.50;1.00;;;;;;5030790;28;20775;-72
2023/07/21 03:32:51;;;;;;;8.10;3.77;;;12.50;1.00;;;;;;5023439;28;20910;-72
2023/07/21 03:35:16;;;;;;;3.47;3.17;;;12.60;1.00;;;;;;5030376;28;20237;-71
2023/07/21 03:37:42;;;;;;;3.60;3.30;;;12.50;1.00;;;;;;5033140;28;20207;-69
2023/07/21 03:40:09;;;;;;;3.77;2.70;;;12.60;1.00;;;;;;5032911;28;20183;-69
2023/07/21 03:42:35;;;;;;;4.40;3.47;;;12.60;1.00;;;;;;5033151;28;20494;-71
2023/07/21 03:45:05;;;;;;;4.60;3.73;;;12.60;1.00;;;;;;5015294;28;20450;-74
2023/07/21 03:47:35;;;;;;;4.93;3.20;;;12.60;1.00;;;;;;5029924;28;20438;-78
2023/07/21 03:50:01;;;;;;;2.90;2.70;;;12.60;1.00;;;;;;5030706;28;20957;-77
2023/07/21 03:52:27;;;;;;;3.67;3.47;;;12.60;1.00;;;;;;5028402;28;20484;-76
2023/07/21 03:54:53;;;;;;;9.03;2.90;;;12.60;1.00;;;;;;5031667;28;20512;-76
2023/07/21 03:57:20;;;;;;;4.07;2.50;;;12.70;1.00;;;;;;5015443;28;20688;-79
2023/07/21 03:59:47;;;;;;;5.00;3.20;;;12.70;1.00;;;;;;5027406;28;20429;-69
2023/07/21 04:02:12;;;;;;;4.27;2.53;;;12.70;1.00;;;;;;5031264;28;20977;-73
2023/07/21 04:04:38;;;;;;;3.70;3.07;;;12.70;1.00;;;;;;5031184;28;20426;-74
2023/07/21 04:07:05;;;;;;;7.63;3.20;;;12.70;1.00;;;;;;5019440;28;20192;-69
2023/07/21 04:09:34;;;;;;;3.37;2.97;;;12.70;1.00;;;;;;5029283;28;20191;-72
2023/07/21 04:11:59;;;;;;;4.20;2.80;;;12.80;1.00;;;;;;5016366;28;20422;-73
2023/07/21 04:14:25;;;;;;;3.80;3.50;;;12.80;1.00;;;;;;5015100;28;20435;-69
2023/07/21 04:16:51;;;;;;;4.10;2.90;;;12.80;1.00;;;;;;5012907;28;20723;-69
2023/07/21 04:19:17;;;;;;;3.07;2.87;;;12.80;1.00;;;;;;5028519;28;20521;-71
2023/07/21 04:21:43;;;;;;;3.13;2.83;;;12.80;1.00;;;;;;5018045;28;20573;-71
2023/07/21 04:24:10;;;;;;;4.70;2.73;;;12.90;1.00;;;;;;5019419;28;20180;-69
2023/07/21 04:26:36;;;;;;;3.67;3.37;;;12.90;1.00;;;;;;5015970;28;20539;-69
2023/07/21 04:29:02;;;;;;;3.90;3.10;;;12.90;1.00;;;;;;5030574;28;20437;-69
2023/07/21 04:31:28;;;;;;;3.57;3.27;;;12.90;1.00;;;;;;5022907;28;20435;-70
2023/07/21 04:33:58;;;;;;;5.30;2.93;;;12.90;1.00;;;;;;5023907;28;20179;-78
2023/07/21 04:36:24;;;;;;;5.60;3.40;;;13.00;1.00;;;;;;5020330;28;20463;-71
2023/07/21 04:38:50;;;;;;;3.90;3.50;;;13.00;1.00;;;;;;5014541;28;20469;-77
2023/07/21 04:41:16;;;;;;;3.70;2.80;;;13.00;1.00;;;;;;5023455;28;20454;-69
2023/07/21 04:43:43;;;;;;;2.83;2.47;;;13.00;1.00;;;;;;5021440;28;20409;-73
2023/07/21 04:46:10;;;;;;;6.60;3.10;;;13.10;1.00;;;;;;5025777;28;20443;-78
2023/07/21 04:48:36;;;;;;;4.63;3.33;;;13.10;1.00;;;;;;5024307;28;20788;-68
2023/07/21 04:51:04;;;;;;;3.33;2.80;;;13.20;1.00;;;;;;5032254;28;20441;-76
2023/07/21 04:53:30;;;;;;;3.90;2.80;;;13.20;1.00;;;;;;5024553;28;20468;-78
2023/07/21 04:55:57;;;;;;;3.57;3.27;;;13.30;1.00;;;;;;5034481;28;20454;-78
2023/07/21 04:58:23;;;;;;;3.10;2.87;;;13.30;1.00;;;;;;5032208;28;20445;-75
2023/07/21 05:00:49;;;;;;;2.90;2.70;;;13.30;1.00;;;;;;5026784;28;20438;-77
2023/07/21 05:03:15;;;;;;;3.80;3.20;;;13.40;1.00;;;;;;5031901;28;20434;-69
2023/07/21 05:05:41;;;;;;;4.60;3.10;;;13.50;1.00;;;;;;5029448;28;20188;-68
2023/07/21 05:08:06;;;;;;;2.80;2.60;;;13.50;1.00;;;;;;5021889;28;20227;-69
2023/07/21 05:10:32;;;;;;;4.03;2.30;;;13.60;1.00;;;;;;5034194;28;20536;-76
2023/07/21 05:12:59;;;;;;;4.23;3.80;;;13.60;1.00;;;;;;5033684;28;20167;-78
2023/07/21 05:15:26;;;;;;;7.07;2.43;;;13.70;1.00;;;;;;5032009;28;20655;-78
2023/07/21 05:17:51;;;;;;;2.90;2.53;;;13.80;1.00;;;;;;5030331;28;20467;-70
2023/07/21 05:20:19;;;;;;;3.07;2.87;;;13.80;1.00;;;;;;5023999;28;20441;-69
2023/07/21 05:22:46;;;;;;;3.80;2.50;;;13.90;1.00;;;;;;5033539;28;20259;-76
2023/07/21 05:25:16;;;;;;;4.13;2.60;;;13.90;1.00;;;;;;5030573;28;20405;-69
2023/07/21 05:27:42;;;;;;;4.87;2.70;;;14.00;1.00;;;;;;5017042;28;20468;-69
2023/07/21 05:30:11;;;;;;;3.03;2.17;;;14.00;1.00;;;;;;5034782;28;20398;-71
2023/07/21 05:32:39;;;;;;;3.80;2.43;;;14.10;1.00;;;;;;5021583;28;20188;-79
2023/07/21 05:35:09;;;;;;;5.20;2.97;;;14.20;1.00;;;;;;5029679;28;20445;-69
2023/07/21 05:37:35;;;;;;;4.50;2.93;;;14.30;1.00;;;;;;5032248;28;20611;-72
2023/07/21 05:40:01;;;;;;;3.47;2.37;;;14.30;1.00;;;;;;5029323;28;20526;-71
2023/07/21 05:42:26;;;;;;;5.37;2.43;;;14.40;1.00;;;;;;5033832;28;20171;-66
2023/07/21 05:44:52;;;;;;;2.53;2.33;;;14.50;1.00;;;;;;5033159;28;20176;-68
2023/07/21 05:47:19;;;;;;;2.97;2.67;;;14.60;1.00;;;;;;5016920;28;20207;-67
2023/07/21 05:49:45;;;;;;;2.50;1.87;;;14.70;1.00;;;;;;5033042;28;20218;-73
2023/07/21 05:52:11;;;;;;;2.17;1.97;;;14.70;1.00;;;;;;5034849;28;20432;-67
2023/07/21 05:54:37;;;;;;;7.77;2.80;;;14.80;1.00;;;;;;5032340;28;20441;-72
2023/07/21 05:57:03;;;;;;;3.00;2.70;;;14.90;1.00;;;;;;5032927;28;20731;-65
2023/07/21 05:59:32;;;;;;;2.80;2.53;;;15.00;1.00;;;;;;5017031;28;20795;-70
2023/07/21 06:02:00;;;;;;;3.83;2.67;;;15.00;1.00;;;;;;5020225;28;20435;-75
2023/07/21 06:04:26;;;;;;;7.37;2.43;;;15.10;1.00;;;;;;5020040;28;20450;-74
2023/07/21 06:06:55;;;;;;;6.97;2.37;;;15.10;1.00;;;;;;5020932;28;20454;-76
2023/07/21 06:09:20;;;;;;;4.87;2.80;;;15.20;1.00;;;;;;5030921;28;20438;-75
2023/07/21 06:11:47;;;;;;;7.10;2.50;;;15.30;1.00;;;;;;5033502;28;20484;-69
2023/07/21 06:14:13;;;;;;;3.00;1.97;;;15.30;1.00;;;;;;5035038;28;20249;-78
2023/07/21 06:16:39;;;;;;;3.53;2.40;;;15.30;1.00;;;;;;5032571;28;20973;-77
2023/07/21 06:19:04;;;;;;;3.77;2.10;;;15.40;1.00;;;;;;5032579;28;20176;-69
2023/07/21 06:21:30;;;;;;;3.90;2.10;;;15.50;1.00;;;;;;5032726;28;20629;-74
2023/07/21 06:23:56;;;;;;;3.20;1.90;;;15.50;1.00;;;;;;5027662;28;20180;-78
2023/07/21 06:26:21;;;;;;;3.20;2.37;;;15.60;1.00;;;;;;5021324;28;20180;-72
2023/07/21 06:28:47;;;;;;;3.77;2.20;;;15.60;1.00;;;;;;5034316;28;20176;-78
2023/07/21 06:31:14;;;;;;;1.90;1.80;;;15.60;1.00;;;;;;5022700;28;20199;-77
2023/07/21 06:33:40;;;;;;;5.37;2.20;;;15.70;1.00;;;;;;5027940;28;20191;-78
2023/07/21 06:36:06;;;;;;;2.40;2.13;;;15.70;1.00;;;;;;5029145;28;20459;-73
2023/07/21 06:38:31;;;;;;;4.03;2.50;;;15.80;1.00;;;;;;5020531;28;20199;-74
2023/07/21 06:40:57;;;;;;;6.80;2.37;;;15.90;1.00;;;;;;5015421;28;20180;-74
2023/07/21 06:43:23;;;;;;;5.90;2.60;;;16.00;99.90;;;;;;5021805;28;20175;-77
2023/07/21 06:45:49;;;;;;;3.03;2.13;;;16.10;99.90;;;;;;5025097;28;20230;-69
2023/07/21 06:48:14;;;;;;;3.00;2.80;;;16.10;99.90;;;;;;5022854;28;20729;-69
2023/07/21 06:50:40;;;;;;;4.20;2.73;;;16.30;99.90;;;;;;5034134;28;20230;-72
2023/07/21 06:53:06;;;;;;;3.17;2.60;;;16.40;99.90;;;;;;5033290;28;20571;-78
2023/07/21 06:55:33;;;;;;;2.37;2.27;;;16.50;99.90;;;;;;5033593;28;20448;-75
2023/07/21 06:57:59;;;;;;;3.43;2.57;;;16.50;99.90;;;;;;5033650;28;20438;-70
2023/07/21 07:00:25;;;;;;;2.90;2.60;;;16.60;99.90;;;;;;5034505;28;20402;-78
2023/07/21 07:02:50;;;;;;;5.50;2.10;;;16.70;99.90;;;;;;5034657;28;20168;-78
2023/07/21 07:05:17;;;;;;;2.53;2.33;;;16.80;99.90;;;;;;5033540;28;20790;-74
2023/07/21 07:07:43;;;;;;;6.97;3.13;;;16.90;99.90;;;;;;5014952;28;20192;-79
2023/07/21 07:10:10;;;;;;;6.33;2.30;;;17.10;99.90;;;;;;5014519;28;20399;-79
2023/07/21 07:12:37;;;;;;;2.40;1.93;;;17.30;99.90;;;;;;5014750;28;20490;-78
2023/07/21 07:15:03;;;;;;;2.67;2.47;;;17.40;99.90;;;;;;5011866;28;20451;-75
2023/07/21 07:17:29;;;;;;;4.50;2.30;;;17.30;99.90;;;;;;5013598;28;20451;-70
2023/07/21 07:19:55;;;;;;;2.00;1.67;;;17.30;99.90;;;;;;5014688;28;20415;-79
2023/07/21 07:22:20;;;;;;;2.73;2.30;;;17.20;99.90;;;;;;5030270;28;20179;-69
2023/07/21 07:24:46;;;;;;;2.87;2.13;;;17.20;99.90;;;;;;5034383;28;20670;-70
2023/07/21 07:27:12;;;;;;;6.80;2.40;;;17.10;99.90;;;;;;5033082;28;20253;-72
2023/07/21 07:29:37;;;;;;;6.30;1.90;;;17.10;99.90;;;;;;5034239;28;20180;-69
2023/07/21 07:32:03;;;;;;;2.90;2.10;;;17.20;99.90;;;;;;5034026;28;20262;-75
2023/07/21 07:34:29;;;;;;;2.27;2.07;;;17.30;99.90;;;;;;5033021;28;20246;-73
2023/07/21 07:36:57;;;;;;;5.27;2.03;;;17.20;99.90;;;;;;5016936;28;20882;-69
2023/07/21 07:39:24;;;;;;;3.43;1.63;;;17.30;99.90;;;;;;5012476;28;20207;-70
2023/07/21 07:41:51;;;;;;;2.43;1.80;;;17.30;99.90;;;;;;5014369;28;20407;-79
2023/07/21 07:44:18;;;;;;;2.47;2.27;;;17.40;99.90;;;;;;5013984;28;20478;-78
2023/07/21 07:46:44;;;;;;;2.30;2.10;;;17.50;99.90;;;;;;5012975;28;20423;-77
2023/07/21 07:49:10;;;;;;;3.00;1.90;;;17.50;99.90;;;;;;5021920;28;20453;-79
2023/07/21 07:51:38;;;;;;;5.27;2.23;;;17.60;99.90;;;;;;5033422;28;20628;-74
2023/07/21 07:54:05;;;;;;;4.47;2.30;;;17.60;99.90;;;;;;5032531;28;20515;-79
2023/07/21 07:56:31;;;;;;;3.13;1.87;;;17.60;99.90;;;;;;5032524;28;20969;-76
2023/07/21 07:58:57;;;;;;;2.77;1.90;;;17.70;99.90;;;;;;5033606;28;20398;-71
2023/07/21 08:01:23;;;;;;;2.13;1.90;;;17.80;99.90;;;;;;5033451;28;20394;-77
2023/07/21 08:03:50;;;;;;;1.73;1.63;;;17.90;99.90;;;;;;5032960;28;20210;-69
2023/07/21 08:06:16;;;;;;;5.73;1.97;;;17.90;99.90;;;;;;5032582;28;20406;-71
2023/07/21 08:08:42;;;;;;;1.60;1.50;;;18.00;99.90;;;;;;5031878;28;20525;-71
2023/07/21 08:11:09;;;;;;;2.80;1.60;;;18.00;99.90;;;;;;5029672;28;20168;-72
2023/07/21 08:13:35;;;;;;;2.70;1.57;;;18.20;99.90;;;;;;5013417;28;20404;-76
2023/07/21 08:16:06;;;;;;;3.90;1.53;;;18.40;99.90;;;;;;5012525;28;20908;-77
2023/07/21 08:18:33;;;;;;;2.30;1.80;;;18.40;99.90;;;;;;5025048;28;20910;-71
2023/07/21 08:20:58;;;;;;;3.40;1.30;;;18.50;99.90;;;;;;5032520;28;20395;-70
2023/07/21 08:23:24;;;;;;;3.43;1.50;;;18.60;99.90;;;;;;5031941;28;20544;-72
2023/07/21 08:25:50;;;;;;;2.13;1.67;;;18.50;99.90;;;;;;5032624;28;20164;-73
2023/07/21 08:28:16;;;;;;;2.40;1.83;;;18.40;99.90;;;;;;5033115;28;20195;-75
2023/07/21 08:30:41;;;;;;;1.50;1.40;;;18.30;99.90;;;;;;5030968;28;20501;-78
2023/07/21 08:33:07;;;;;;;2.70;1.53;;;18.00;99.90;;;;;;5032678;28;20175;-73
2023/07/21 08:35:33;;;;;;;1.90;1.53;;;17.90;99.90;;;;;;5032322;28;20164;-79
2023/07/21 08:37:59;;;;;;;1.93;1.67;;;17.80;99.90;;;;;;5033253;28;20265;-75
2023/07/21 08:40:24;;;;;;;1.80;1.70;;;17.70;99.90;;;;;;5033134;28;20187;-70
2023/07/21 08:42:50;;;;;;;2.30;1.67;;;17.60;99.90;;;;;;5033121;28;20175;-76
2023/07/21 08:45:18;;;;;;;3.07;1.97;;;17.50;99.90;;;;;;5031727;28;20172;-77
2023/07/21 08:47:44;;;;;;;2.77;2.13;;;17.50;99.90;;;;;;5031827;28;20454;-79
2023/07/21 08:50:11;;;;;;;2.40;2.20;;;17.40;99.90;;;;;;5031927;28;20402;-79
2023/07/21 08:52:36;;;;;;;2.83;2.00;;;17.40;99.90;;;;;;5033250;28;20243;-70
2023/07/21 08:55:02;;;;;;;3.80;2.27;;;17.40;99.90;;;;;;5032317;28;20438;-73
2023/07/21 08:57:28;;;;;;;3.30;2.40;;;17.50;99.90;;;;;;5033037;28;20195;-79
2023/07/21 08:59:54;;;;;;;4.10;2.93;;;17.50;99.90;;;;;;5032745;28;20831;-79
2023/07/21 09:02:46;;;;;;;2.20;1.90;;;17.50;99.90;;;;;;5032320;28;20184;-78
2023/07/21 09:05:16;;;;;;;1.97;1.77;;;17.60;99.90;;;;;;5031949;28;20887;-76
2023/07/21 09:07:42;;;;;;;2.00;1.90;;;17.50;99.90;;;;;;5031571;28;20791;-72
2023/07/21 09:10:09;;;;;;;4.63;2.30;;;17.40;99.90;;;;;;5032578;28;20445;-79
2023/07/21 09:12:36;;;;;;;2.63;2.43;;;17.30;99.90;;;;;;5032938;28;20399;-79
2023/07/21 09:15:10;;;;;;;2.50;2.10;;;17.30;99.90;;;;;;5030924;28;20861;-76
2023/07/21 09:17:43;;;;;;;2.80;2.60;;;17.30;99.90;;;;;;5032650;28;21079;-75
2023/07/21 09:20:10;;;;;;;2.03;1.73;;;17.20;99.90;;;;;;5032733;28;20407;-70
2023/07/21 09:22:36;;;;;;;3.20;2.00;;;17.20;99.90;;;;;;5032264;28;20894;-77
2023/07/21 09:25:02;;;;;;;2.00;1.83;;;17.00;99.90;;;;;;5032358;28;20427;-76
2023/07/21 09:27:28;;;;;;;2.20;1.47;;;16.90;99.90;;;;;;5029877;28;21040;-70
2023/07/21 09:30:02;;;;;;;1.13;0.97;;;16.40;99.90;;;;;;5032805;28;20250;-69
2023/07/21 09:32:28;;;;;;;2.50;1.50;;;16.40;99.90;;;;;;5031541;28;20429;-71
2023/07/21 09:35:00;;;;;;;1.50;1.40;;;16.40;99.90;;;;;;5036141;28;20406;-76
2023/07/21 09:37:30;;;;;;;1.60;1.40;;;16.60;99.90;;;;;;5035660;28;20539;-76
2023/07/21 09:40:10;;;;;;;3.67;1.27;;;16.70;99.90;;;;;;5036177;28;20399;-77
2023/07/21 09:42:37;;;;;;;2.90;2.10;;;16.90;99.90;;;;;;5014966;28;20810;-77
2023/07/21 09:45:03;;;;;;;1.77;1.67;;;16.80;99.90;;;;;;5014419;28;20399;-75
2023/07/21 09:47:29;;;;;;;1.40;1.30;;;16.90;99.90;;;;;;5015671;28;20423;-70
2023/07/21 09:49:58;;;;;;;2.50;1.50;;;16.90;99.90;;;;;;5015196;28;20497;-73
2023/07/21 09:52:26;;;;;;;2.07;1.63;;;17.00;99.90;;;;;;5016095;28;20724;-76
2023/07/21 09:54:54;;;;;;;1.80;1.50;;;17.20;99.90;;;;;;5016750;28;20397;-69
2023/07/21 09:57:23;;;;;;;1.67;1.57;;;17.50;99.90;;;;;;5035015;28;20496;-74
2023/07/21 09:59:50;;;;;;;1.73;1.43;;;17.80;99.90;;;;;;5035935;28;20398;-69
2023/07/21 10:02:17;;;;;;;1.63;1.53;;;18.10;99.90;;;;;;5034384;28;20410;-72
2023/07/21 10:04:46;;;;;;;1.90;1.60;;;18.20;99.90;;;;;;5034853;28;20403;-72
2023/07/21 10:07:12;;;;;;;1.63;1.40;;;18.00;99.90;;;;;;5034081;28;20924;-70
2023/07/21 10:09:39;;;;;;;1.60;1.50;;;18.00;99.90;;;;;;5034214;28;20786;-76
2023/07/21 10:12:16;;;;;;;2.47;1.40;;;18.20;99.90;;;;;;5035503;28;20398;-78
2023/07/21 10:14:44;;;;;;;2.53;1.67;;;18.40;99.90;;;;;;5034906;28;20398;-70
2023/07/21 10:17:10;;;;;;;1.73;1.63;;;18.50;99.90;;;;;;5015539;28;20455;-69
2023/07/21 10:19:44;;;;;;;1.40;1.30;;;18.60;99.90;;;;;;5035113;28;20406;-70
2023/07/21 10:22:23;;;;;;;4.17;1.67;;;18.60;99.90;;;;;;5035016;28;20448;-72
2023/07/21 10:24:51;;;;;;;1.20;1.10;;;18.80;99.90;;;;;;5033945;28;20430;-74
2023/07/21 10:27:24;;;;;;;1.67;1.30;;;19.30;99.90;;;;;;5034535;28;20425;-75
2023/07/21 10:30:20;;;;;;;1.40;1.27;;;19.90;99.90;;;;;;5035283;28;20390;-72
2023/07/21 10:32:45;;;;;;;2.50;1.73;;;20.50;99.90;;;;;;5035166;28;20489;-77
2023/07/21 10:35:36;;;;;;;1.93;1.40;;;21.30;99.90;;;;;;5013173;28;20603;-69
2023/07/21 10:38:14;;;;;;;1.53;1.43;;;21.30;99.90;;;;;;5014998;28;20211;-71
2023/07/21 10:40:44;;;;;;;1.70;1.60;;;20.90;99.90;;;;;;5014489;28;20407;-72
2023/07/21 10:43:11;;;;;;;1.30;1.20;;;21.00;99.90;;;;;;5025437;28;20434;-71
2023/07/21 10:45:37;;;;;;;1.87;1.50;;;20.50;99.90;;;;;;5032963;28;20410;-71
2023/07/21 10:48:16;;;;;;;1.83;1.40;;;19.90;99.90;;;;;;5034925;28;20446;-69
2023/07/21 10:50:51;;;;;;;1.97;1.33;;;19.70;99.90;;;;;;5034689;28;20412;-72
2023/07/21 10:53:17;;;;;;;3.30;1.10;;;19.80;99.90;;;;;;5034842;28;21261;-73
2023/07/21 10:55:42;;;;;;;1.10;1.00;;;19.90;99.90;;;;;;5033940;28;20510;-75
2023/07/21 10:58:08;;;;;;;1.47;1.03;;;19.70;99.90;;;;;;5033072;28;20209;-78
2023/07/21 11:00:48;;;;;;;1.80;1.10;;;19.40;99.90;;;;;;5034858;28;20677;-69
2023/07/21 11:03:16;;;;;;;1.43;1.20;;;19.10;99.90;;;;;;5032535;28;20199;-72
2023/07/21 11:05:42;;;;;;;1.90;1.23;;;18.90;99.90;;;;;;5033659;28;20438;-69
2023/07/21 11:08:12;;;;;;;1.67;1.30;;;18.70;99.90;;;;;;5034415;28;20446;-69
2023/07/21 11:10:38;;;;;;;2.03;1.07;;;18.40;99.90;;;;;;5034597;28;20453;-69
2023/07/21 11:13:04;;;;;;;1.53;1.33;;;18.30;99.90;;;;;;5032760;28;20434;-72
2023/07/21 11:15:30;;;;;;;2.37;1.50;;;18.30;99.90;;;;;;5029381;28;20179;-75
2023/07/21 11:18:01;;;;;;;1.80;1.70;;;18.80;99.90;;;;;;5014538;28;20451;-76
2023/07/21 11:20:27;;;;;;;1.60;1.30;;;19.90;99.90;;;;;;5014171;28;20418;-70
2023/07/21 11:22:53;;;;;;;1.83;1.20;;;21.00;99.90;;;;;;5014041;28;20461;-76
2023/07/21 11:25:18;;;;;;;1.37;1.27;;;21.80;99.90;;;;;;5013493;28;20738;-71
2023/07/21 11:27:45;;;;;;;2.53;1.47;;;22.30;99.90;;;;;;5026363;28;20537;-75
2023/07/21 11:30:17;;;;;;;2.00;1.20;;;22.70;99.90;;;;;;5034505;28;20262;-74
2023/07/21 11:32:42;;;;;;;1.00;0.80;;;23.10;99.90;;;;;;5033370;28;20406;-73
2023/07/21 11:35:08;;;;;;;2.80;1.10;;;23.50;99.90;;;;;;5033109;28;20475;-76
2023/07/21 11:37:44;;;;;;;1.50;0.90;;;23.90;99.90;;;;;;5033591;28;20206;-69
2023/07/21 11:40:29;;;;;;;1.43;1.10;;;24.20;99.90;;;;;;5029736;28;20167;-76
2023/07/21 11:42:58;;;;;;;1.73;1.07;;;23.30;99.90;;;;;;5018978;28;20892;-72
2023/07/21 11:45:41;;;;;;;1.50;1.00;;;22.20;99.90;;;;;;5015081;28;20403;-69
2023/07/21 11:48:13;;;;;;;2.50;1.50;;;21.50;99.90;;;;;;5029405;28;20864;-77
2023/07/21 11:50:41;;;;;;;1.40;1.30;;;21.00;99.90;;;;;;5033037;28;20419;-69
2023/07/21 11:53:07;;;;;;;1.50;1.40;;;20.60;99.90;;;;;;5033929;28;20871;-70
2023/07/21 11:55:34;;;;;;;2.97;1.43;;;20.20;99.90;;;;;;5032492;28;20409;-69
2023/07/21 11:57:59;;;;;;;1.50;1.30;;;19.80;99.90;;;;;;5032270;28;20458;-72
2023/07/21 12:00:27;;;;;;;2.77;1.50;;;19.40;99.90;;;;;;5033574;28;20416;-73
2023/07/21 12:02:57;;;;;;;1.50;1.40;;;19.20;99.90;;;;;;5032790;28;20605;-71
2023/07/21 12:05:24;;;;;;;2.23;1.70;;;19.00;99.90;;;;;;5032437;28;20433;-69
2023/07/21 12:07:52;;;;;;;2.20;1.60;;;18.90;99.90;;;;;;5032742;28;20421;-69
2023/07/21 12:10:18;;;;;;;1.80;1.70;;;18.90;99.90;;;;;;5032213;28;20446;-70
2023/07/21 12:12:44;;;;;;;2.00;1.70;;;18.80;99.90;;;;;;5033533;28;20875;-69
2023/07/21 12:15:10;;;;;;;3.03;1.83;;;18.60;99.90;;;;;;5031860;28;20429;-76
2023/07/21 12:17:37;;;;;;;2.33;1.83;;;18.50;99.90;;;;;;5030927;28;20207;-76
2023/07/21 12:20:06;;;;;;;1.80;1.70;;;18.50;99.90;;;;;;5033322;28;20901;-70
2023/07/21 12:22:32;;;;;;;2.23;2.03;;;18.40;99.90;;;;;;5029284;28;20425;-71
2023/07/21 12:24:57;;;;;;;2.70;1.80;;;18.30;99.90;;;;;;5031024;28;20411;-77
2023/07/21 12:27:23;;;;;;;2.67;1.83;;;18.30;99.90;;;;;;5032535;28;20195;-69
2023/07/21 12:29:49;;;;;;;2.20;2.00;;;18.40;99.90;;;;;;5033236;28;20627;-77
2023/07/21 12:32:14;;;;;;;1.73;1.60;;;18.40;99.90;;;;;;5032651;28;20187;-69
2023/07/21 12:34:40;;;;;;;2.20;2.00;;;18.50;99.90;;;;;;5031562;28;20317;-71
2023/07/21 12:37:06;;;;;;;1.40;1.30;;;18.40;99.90;;;;;;5031852;28;20211;-69
2023/07/21 12:39:31;;;;;;;1.80;1.70;;;18.40;99.90;;;;;;5033274;28;20628;-74
2023/07/21 12:41:57;;;;;;;5.67;1.60;;;18.50;99.90;;;;;;5032526;28;20291;-76
2023/07/21 12:44:23;;;;;;;2.23;1.43;;;18.60;99.90;;;;;;5033137;28;20182;-72
2023/07/21 12:46:49;;;;;;;1.93;1.40;;;18.80;99.90;;;;;;5031502;28;20669;-74
2023/07/21 12:49:14;;;;;;;1.30;1.20;;;19.10;99.90;;;;;;5032117;28;20195;-78
2023/07/21 12:51:40;;;;;;;1.37;1.27;;;19.70;99.90;;;;;;5032694;28;20534;-76